Time;durP1;ratioP1;P1;durP2;ratioP2;P2;SDS_P1;SDS_P2;PMS_P1;PMS_P2;Temp;Humidity;BMP_temperature;BMP_pressure;BME280_temperature;BME280_humidity;BME280_pressure;Samples;Min_cycle;Max_cycle;Signal;HPM_P1;HPM_P2
2023/01/10 00:00:14;;;;;;;4.10;2.20;;;;;;;;;;5000938;28;20097;-49
2023/01/10 00:02:41;;;;;;;6.13;2.35;;;;;;;;;;5000145;28;20105;-50
2023/01/10 00:05:08;;;;;;;3.67;2.63;;;;;;;;;;5001265;28;20097;-48
2023/01/10 00:07:35;;;;;;;3.85;2.10;;;;;;;;;;5000882;28;20415;-48
2023/01/10 00:10:02;;;;;;;4.60;2.20;;;;;;;;;;5000283;28;20077;-49
2023/01/10 00:15:17;;;;;;;6.10;2.33;;;;;;;;;;5000423;28;20044;-49
2023/01/10 00:17:44;;;;;;;3.90;1.90;;;;;;;;;;5000334;28;20082;-51
2023/01/10 00:20:12;;;;;;;5.55;2.50;;;;;;;;;;4999554;28;20057;-52
2023/01/10 00:22:39;;;;;;;3.70;2.25;;;;;;;;;;4998870;28;20054;-50
2023/01/10 00:25:06;;;;;;;4.95;2.55;;;;;;;;;;4999735;28;20420;-50
2023/01/10 00:27:35;;;;;;;4.45;2.28;;;;;;;;;;4999641;28;20050;-50
2023/01/10 00:30:12;;;;;;;5.07;2.17;;;;;;;;;;4980467;28;20145;-48
2023/01/10 00:32:39;;;;;;;5.00;2.40;;;;;;;;;;4998897;28;20062;-47
2023/01/10 00:35:08;;;;;;;4.68;2.78;;;;;;;;;;4999706;28;20049;-49
2023/01/10 00:37:35;;;;;;;4.22;2.45;;;;;;;;;;5000021;28;20098;-48
2023/01/10 00:40:02;;;;;;;6.18;2.50;;;;;;;;;;5000127;28;20046;-52
2023/01/10 00:45:15;;;;;;;4.63;2.38;;;;;;;;;;4999524;28;20129;-50
2023/01/10 00:47:42;;;;;;;4.75;2.38;;;;;;;;;;4999735;28;20428;-50
2023/01/10 00:50:10;;;;;;;5.97;2.35;;;;;;;;;;4999555;28;20057;-52
2023/01/10 00:52:36;;;;;;;4.53;2.28;;;;;;;;;;4999293;28;20500;-52
2023/01/10 00:55:04;;;;;;;4.57;2.38;;;;;;;;;;4999513;28;20058;-50
2023/01/10 00:57:30;;;;;;;6.50;2.88;;;;;;;;;;4999317;28;20050;-52
2023/01/10 00:59:57;;;;;;;4.20;2.42;;;;;;;;;;4999699;28;20050;-50
2023/01/10 01:02:25;;;;;;;5.20;2.63;;;;;;;;;;4998799;28;20507;-48
2023/01/10 01:04:52;;;;;;;5.00;2.40;;;;;;;;;;4998840;28;20491;-52
2023/01/10 01:07:19;;;;;;;5.38;2.40;;;;;;;;;;4998532;28;20050;-50
2023/01/10 01:12:30;;;;;;;4.57;2.47;;;;;;;;;;4998357;28;20049;-51
2023/01/10 01:14:57;;;;;;;6.10;2.63;;;;;;;;;;4999005;28;20050;-51
2023/01/10 01:17:25;;;;;;;4.47;2.47;;;;;;;;;;4998024;28;20058;-51
2023/01/10 01:19:52;;;;;;;5.30;2.55;;;;;;;;;;4999070;28;20065;-50
2023/01/10 01:22:19;;;;;;;3.88;2.13;;;;;;;;;;4998010;28;20058;-51
2023/01/10 01:24:46;;;;;;;5.60;2.60;;;;;;;;;;4998583;28;20078;-51
2023/01/10 01:27:13;;;;;;;3.97;2.38;;;;;;;;;;4998814;28;20046;-49
2023/01/10 01:29:40;;;;;;;4.88;2.75;;;;;;;;;;4997869;28;20054;-51
2023/01/10 01:32:07;;;;;;;5.53;2.42;;;;;;;;;;4998080;28;20096;-52
2023/01/10 01:34:35;;;;;;;4.43;2.30;;;;;;;;;;4998326;28;20134;-53
2023/01/10 01:37:02;;;;;;;3.95;2.03;;;;;;;;;;4998798;28;20062;-51
2023/01/10 01:39:29;;;;;;;7.15;2.78;;;;;;;;;;4998486;28;20515;-51
2023/01/10 01:41:59;;;;;;;4.63;2.25;;;;;;;;;;4997471;28;20058;-49
2023/01/10 01:44:31;;;;;;;4.40;2.20;;;;;;;;;;4998255;28;20046;-50
2023/01/10 01:47:04;;;;;;;3.80;1.95;;;;;;;;;;4998550;28;20319;-48
2023/01/10 01:49:32;;;;;;;4.38;2.00;;;;;;;;;;4997056;28;20503;-48
2023/01/10 01:52:05;;;;;;;3.95;1.95;;;;;;;;;;4997667;28;20050;-50
2023/01/10 01:54:33;;;;;;;3.70;2.10;;;;;;;;;;4997137;28;20042;-48
2023/01/10 01:57:05;;;;;;;5.20;2.13;;;;;;;;;;4997871;28;20054;-49
2023/01/10 01:59:36;;;;;;;4.28;2.00;;;;;;;;;;4997405;28;20050;-49
2023/01/10 02:02:08;;;;;;;4.50;2.28;;;;;;;;;;4997229;28;20056;-50
2023/01/10 02:04:40;;;;;;;4.25;2.10;;;;;;;;;;4997012;28;20050;-50
2023/01/10 02:07:10;;;;;;;4.50;1.77;;;;;;;;;;4997046;28;20046;-51
2023/01/10 02:09:41;;;;;;;3.88;1.73;;;;;;;;;;4996559;28;20487;-52
2023/01/10 02:12:10;;;;;;;4.40;1.80;;;;;;;;;;4996616;28;20054;-49
2023/01/10 02:14:38;;;;;;;4.22;1.95;;;;;;;;;;4996253;28;20046;-52
2023/01/10 02:17:05;;;;;;;4.55;1.90;;;;;;;;;;4996260;28;20057;-49
2023/01/10 02:19:46;;;;;;;4.60;2.00;;;;;;;;;;4996469;28;20054;-49
2023/01/10 02:22:57;;;;;;;3.15;1.45;;;;;;;;;;4995818;28;20046;-50
2023/01/10 02:26:05;;;;;;;3.47;1.90;;;;;;;;;;4936545;29;20079;-50
2023/01/10 02:29:04;;;;;;;4.32;2.08;;;;;;;;;;4983284;28;20066;-51
2023/01/10 02:31:54;;;;;;;3.10;1.60;;;;;;;;;;4996418;28;20101;-53
2023/01/10 02:34:28;;;;;;;4.78;1.67;;;;;;;;;;4996929;28;20050;-50
2023/01/10 02:37:00;;;;;;;4.70;1.95;;;;;;;;;;4996892;28;20053;-49
2023/01/10 02:39:35;;;;;;;4.32;2.05;;;;;;;;;;4996196;28;20054;-50
2023/01/10 02:42:08;;;;;;;4.85;1.65;;;;;;;;;;4995976;28;20054;-49
2023/01/10 02:44:40;;;;;;;4.28;1.90;;;;;;;;;;4996935;28;20470;-52
2023/01/10 02:47:09;;;;;;;3.88;1.73;;;;;;;;;;4996876;28;20054;-51
2023/01/10 02:49:42;;;;;;;3.92;1.77;;;;;;;;;;4997172;28;20054;-50
2023/01/10 02:52:09;;;;;;;6.10;2.28;;;;;;;;;;4996317;28;20049;-50
2023/01/10 02:54:36;;;;;;;5.03;2.08;;;;;;;;;;4997779;28;20061;-49
2023/01/10 02:57:38;;;;;;;3.10;1.50;;;;;;;;;;4997627;28;20043;-49
2023/01/10 03:00:27;;;;;;;3.38;1.45;;;;;;;;;;4991328;28;20058;-50
2023/01/10 03:03:19;;;;;;;2.97;1.50;;;;;;;;;;4996120;28;20462;-53
2023/01/10 03:05:59;;;;;;;3.25;1.60;;;;;;;;;;4996131;28;20062;-49
2023/01/10 03:08:33;;;;;;;4.82;1.80;;;;;;;;;;4996414;28;20052;-50
2023/01/10 03:11:02;;;;;;;3.58;1.73;;;;;;;;;;4996519;28;20109;-50
2023/01/10 03:13:34;;;;;;;3.55;1.52;;;;;;;;;;4995966;28;20448;-51
2023/01/10 03:16:04;;;;;;;3.45;1.73;;;;;;;;;;4996652;28;20050;-48
2023/01/10 03:18:37;;;;;;;4.22;1.65;;;;;;;;;;4996733;28;20055;-53
2023/01/10 03:21:06;;;;;;;5.65;1.70;;;;;;;;;;4999837;28;20488;-53
2023/01/10 03:23:34;;;;;;;4.25;1.40;;;;;;;;;;4999712;28;20046;-52
2023/01/10 03:26:04;;;;;;;3.15;1.58;;;;;;;;;;4999870;28;20058;-49
2023/01/10 03:28:35;;;;;;;6.85;1.73;;;;;;;;;;4999644;28;20124;-49
2023/01/10 03:31:06;;;;;;;3.58;1.52;;;;;;;;;;5000104;28;20562;-50
2023/01/10 03:33:35;;;;;;;2.95;1.45;;;;;;;;;;4999550;28;20050;-49
2023/01/10 03:36:15;;;;;;;4.30;1.77;;;;;;;;;;5000084;28;20646;-48
2023/01/10 03:38:45;;;;;;;3.70;1.95;;;;;;;;;;5000178;28;20065;-50
2023/01/10 03:41:16;;;;;;;4.93;1.67;;;;;;;;;;4999997;28;20047;-52
2023/01/10 03:46:37;;;;;;;4.35;1.90;;;;;;;;;;5000364;28;20145;-52
2023/01/10 03:49:09;;;;;;;4.82;1.73;;;;;;;;;;5000185;28;20139;-50
2023/01/10 03:51:37;;;;;;;3.25;1.80;;;;;;;;;;4999440;28;20496;-49
2023/01/10 03:54:05;;;;;;;3.22;1.83;;;;;;;;;;4999925;28;20054;-50
2023/01/10 03:56:32;;;;;;;3.65;1.75;;;;;;;;;;4999540;28;20120;-49
2023/01/10 03:58:59;;;;;;;3.70;1.85;;;;;;;;;;4999710;28;20046;-50
2023/01/10 04:01:26;;;;;;;4.53;2.15;;;;;;;;;;4998792;28;20054;-50
2023/01/10 04:03:52;;;;;;;3.72;2.00;;;;;;;;;;4998888;28;20145;-50
2023/01/10 04:06:21;;;;;;;3.72;2.00;;;;;;;;;;4999119;28;20423;-50
2023/01/10 04:08:47;;;;;;;4.55;2.00;;;;;;;;;;4998933;28;20058;-50
2023/01/10 04:11:14;;;;;;;4.05;2.03;;;;;;;;;;4999299;28;20492;-49
2023/01/10 04:13:41;;;;;;;4.85;1.88;;;;;;;;;;4998792;28;20046;-48
2023/01/10 04:16:10;;;;;;;4.25;2.00;;;;;;;;;;4998954;28;20050;-49
2023/01/10 04:18:36;;;;;;;4.63;2.20;;;;;;;;;;4998529;28;20055;-49
2023/01/10 04:21:03;;;;;;;4.13;2.50;;;;;;;;;;4998627;28;20054;-50
2023/01/10 04:23:32;;;;;;;6.35;2.20;;;;;;;;;;4998029;28;20073;-53
2023/01/10 04:25:59;;;;;;;4.10;1.92;;;;;;;;;;4999097;28;20046;-52
2023/01/10 04:28:25;;;;;;;3.75;2.08;;;;;;;;;;4998848;28;20491;-49
2023/01/10 04:30:52;;;;;;;3.70;2.10;;;;;;;;;;4997343;28;20054;-50
2023/01/10 04:33:19;;;;;;;4.63;2.10;;;;;;;;;;4997881;28;20046;-49
2023/01/10 04:35:47;;;;;;;3.65;1.98;;;;;;;;;;4999169;28;20137;-50
2023/01/10 04:38:15;;;;;;;4.47;2.58;;;;;;;;;;4998376;28;20046;-52
2023/01/10 04:40:43;;;;;;;3.15;1.88;;;;;;;;;;4998654;28;20085;-50
2023/01/10 04:43:11;;;;;;;3.25;1.77;;;;;;;;;;4998168;28;20046;-49
2023/01/10 04:45:37;;;;;;;5.22;2.55;;;;;;;;;;4999202;28;20058;-49
2023/01/10 04:48:05;;;;;;;5.47;2.55;;;;;;;;;;4998487;28;20117;-48
2023/01/10 04:50:32;;;;;;;4.47;2.55;;;;;;;;;;4998669;28;20058;-51
2023/01/10 04:52:59;;;;;;;4.30;2.15;;;;;;;;;;4998007;28;20042;-49
2023/01/10 04:55:26;;;;;;;5.40;2.50;;;;;;;;;;4998712;28;20054;-51
2023/01/10 04:57:54;;;;;;;5.15;2.33;;;;;;;;;;4998993;28;20050;-48
2023/01/10 05:00:21;;;;;;;5.50;2.50;;;;;;;;;;4998729;28;20069;-50
2023/01/10 05:02:47;;;;;;;4.85;2.30;;;;;;;;;;4997346;28;20470;-49
2023/01/10 05:05:15;;;;;;;5.68;2.97;;;;;;;;;;4998078;28;20100;-49
2023/01/10 05:07:41;;;;;;;5.15;2.22;;;;;;;;;;4997955;28;20503;-53
2023/01/10 05:10:10;;;;;;;5.15;2.50;;;;;;;;;;4998604;28;20419;-48
2023/01/10 05:12:36;;;;;;;6.28;2.97;;;;;;;;;;4997390;28;20054;-49
2023/01/10 05:15:06;;;;;;;4.95;2.50;;;;;;;;;;4997821;28;20101;-48
2023/01/10 05:17:32;;;;;;;6.18;3.03;;;;;;;;;;4998322;28;20073;-51
2023/01/10 05:19:59;;;;;;;5.47;2.20;;;;;;;;;;4998424;28;20054;-50
2023/01/10 05:22:26;;;;;;;6.47;2.95;;;;;;;;;;4998274;28;20050;-49
2023/01/10 05:24:53;;;;;;;6.13;2.55;;;;;;;;;;5040713;22;20049;-80
2023/01/10 05:27:19;;;;;;;5.10;2.80;;;;;;;;;;5049326;28;20081;-81
2023/01/10 05:29:46;;;;;;;5.22;2.63;;;;;;;;;;5040715;28;20056;-80
2023/01/10 05:32:14;;;;;;;8.27;2.65;;;;;;;;;;5037314;28;20049;-80
2023/01/10 05:34:40;;;;;;;6.45;2.83;;;;;;;;;;5032025;28;20415;-80
2023/01/10 05:37:07;;;;;;;5.00;2.65;;;;;;;;;;5024658;28;20050;-80
2023/01/10 05:39:34;;;;;;;6.57;2.70;;;;;;;;;;5027043;28;20072;-80
2023/01/10 05:42:01;;;;;;;8.45;3.30;;;;;;;;;;5040044;28;20081;-81
2023/01/10 05:44:27;;;;;;;7.38;3.30;;;;;;;;;;5038753;28;20049;-82
2023/01/10 05:46:54;;;;;;;4.75;2.65;;;;;;;;;;5025900;28;20046;-81
2023/01/10 05:49:22;;;;;;;6.78;2.78;;;;;;;;;;5026610;28;20057;-81
2023/01/10 05:51:49;;;;;;;5.63;2.42;;;;;;;;;;5026217;28;20050;-81
2023/01/10 05:54:15;;;;;;;5.88;2.75;;;;;;;;;;5028883;28;20037;-82
2023/01/10 05:56:42;;;;;;;4.47;2.38;;;;;;;;;;5041894;28;20046;-81
2023/01/10 05:59:09;;;;;;;4.68;2.63;;;;;;;;;;5043060;28;20050;-82
2023/01/10 06:01:36;;;;;;;4.85;2.25;;;;;;;;;;5042421;28;20128;-81
2023/01/10 06:04:02;;;;;;;7.10;2.50;;;;;;;;;;5028138;28;20073;-81
2023/01/10 06:06:31;;;;;;;3.63;1.83;;;;;;;;;;5033346;28;20509;-80
2023/01/10 06:08:58;;;;;;;3.97;2.22;;;;;;;;;;5039129;28;20045;-81
2023/01/10 06:11:28;;;;;;;4.57;2.03;;;;;;;;;;5043780;28;20053;-81
2023/01/10 06:13:55;;;;;;;3.73;1.93;;;;;;;;;;5028295;28;20050;-81
2023/01/10 06:16:22;;;;;;;4.55;2.00;;;;;;;;;;5024010;28;20072;-81
2023/01/10 06:18:49;;;;;;;5.15;2.25;;;;;;;;;;5037197;28;20055;-81
2023/01/10 06:21:15;;;;;;;3.22;1.77;;;;;;;;;;5043899;28;20045;-81
2023/01/10 06:23:43;;;;;;;3.72;1.98;;;;;;;;;;5043680;28;20104;-82
2023/01/10 06:26:10;;;;;;;3.53;1.80;;;;;;;;;;5033053;28;20042;-83
2023/01/10 06:28:39;;;;;;;4.65;2.20;;;;;;;;;;5029179;28;20070;-82
2023/01/10 06:31:06;;;;;;;3.72;1.80;;;;;;;;;;5027223;28;20046;-83
2023/01/10 06:33:33;;;;;;;4.22;2.10;;;;;;;;;;5025212;28;20048;-82
2023/01/10 06:36:00;;;;;;;4.75;2.28;;;;;;;;;;5025955;28;20049;-82
2023/01/10 06:38:26;;;;;;;4.85;2.10;;;;;;;;;;5038117;28;20180;-81
2023/01/10 06:40:54;;;;;;;6.20;2.13;;;;;;;;;;5054924;28;20068;-81
2023/01/10 06:43:21;;;;;;;4.53;2.22;;;;;;;;;;5046128;28;20094;-82
2023/01/10 06:45:48;;;;;;;4.22;1.88;;;;;;;;;;5034030;28;20101;-81
2023/01/10 06:48:14;;;;;;;4.65;2.00;;;;;;;;;;5046849;28;20332;-81
2023/01/10 06:50:41;;;;;;;4.20;2.20;;;;;;;;;;5053545;28;20106;-82
2023/01/10 06:53:08;;;;;;;4.25;2.05;;;;;;;;;;5050826;28;20035;-82
2023/01/10 06:55:35;;;;;;;3.75;1.92;;;;;;;;;;5029249;28;20149;-82
2023/01/10 06:58:04;;;;;;;5.25;2.30;;;;;;;;;;5028941;28;20038;-82
2023/01/10 07:00:31;;;;;;;4.43;2.00;;;;;;;;;;5046588;28;20069;-82
2023/01/10 07:02:59;;;;;;;4.93;2.45;;;;;;;;;;5038481;28;20161;-82
2023/01/10 07:05:26;;;;;;;3.50;1.95;;;;;;;;;;5037368;28;20045;-82
2023/01/10 07:07:53;;;;;;;3.95;2.03;;;;;;;;;;5045030;28;20049;-82
2023/01/10 07:10:19;;;;;;;4.60;2.30;;;;;;;;;;5026808;28;20077;-82
2023/01/10 07:12:46;;;;;;;4.82;2.45;;;;;;;;;;5025608;28;20050;-82
2023/01/10 07:15:14;;;;;;;4.72;2.35;;;;;;;;;;5042735;28;20049;-82
2023/01/10 07:17:40;;;;;;;4.72;2.50;;;;;;;;;;5045488;28;20057;-84
2023/01/10 07:20:08;;;;;;;5.10;2.38;;;;;;;;;;5041430;28;20646;-82
2023/01/10 07:22:35;;;;;;;5.50;2.65;;;;;;;;;;5042854;28;20046;-82
2023/01/10 07:25:02;;;;;;;5.00;2.53;;;;;;;;;;5043570;28;20049;-82
2023/01/10 07:27:30;;;;;;;5.85;2.88;;;;;;;;;;5041925;28;20046;-82
2023/01/10 07:29:57;;;;;;;5.95;3.03;;;;;;;;;;5034050;28;20046;-82
2023/01/10 07:32:26;;;;;;;5.90;2.45;;;;;;;;;;5043132;28;20096;-82
2023/01/10 07:34:52;;;;;;;5.57;2.88;;;;;;;;;;5032213;28;20084;-81
2023/01/10 07:37:19;;;;;;;5.90;3.05;;;;;;;;;;5025380;28;20054;-82
2023/01/10 07:39:45;;;;;;;5.88;3.28;;;;;;;;;;5033191;28;20069;-82
2023/01/10 07:42:12;;;;;;;5.63;3.10;;;;;;;;;;5003748;28;20061;-82
2023/01/10 07:44:39;;;;;;;8.32;3.28;;;;;;;;;;5006169;28;20102;-82
2023/01/10 07:47:05;;;;;;;6.45;3.63;;;;;;;;;;5005314;28;20050;-82
2023/01/10 07:49:33;;;;;;;7.47;3.53;;;;;;;;;;5004405;28;20386;-82
2023/01/10 07:52:00;;;;;;;7.78;4.40;;;;;;;;;;5016061;28;20050;-81
2023/01/10 07:54:27;;;;;;;6.72;3.50;;;;;;;;;;5022082;28;20049;-82
2023/01/10 07:56:53;;;;;;;8.82;4.35;;;;;;;;;;5021039;28;20096;-82
2023/01/10 07:59:20;;;;;;;7.88;3.97;;;;;;;;;;5035680;28;20053;-82
2023/01/10 08:01:47;;;;;;;7.15;3.90;;;;;;;;;;5041029;28;20050;-83
2023/01/10 08:04:14;;;;;;;7.75;3.85;;;;;;;;;;5025243;28;20065;-83
2023/01/10 08:06:42;;;;;;;7.95;4.13;;;;;;;;;;5006355;28;20054;-83
2023/01/10 08:09:08;;;;;;;8.90;4.30;;;;;;;;;;5031612;28;20049;-83
2023/01/10 08:11:35;;;;;;;7.90;4.18;;;;;;;;;;5039613;28;20048;-79
2023/01/10 08:14:02;;;;;;;9.05;4.93;;;;;;;;;;5027572;28;20069;-82
2023/01/10 08:16:28;;;;;;;12.25;4.93;;;;;;;;;;5027028;28;20054;-81
2023/01/10 08:18:55;;;;;;;10.15;4.25;;;;;;;;;;5004893;28;20057;-82
2023/01/10 08:21:22;;;;;;;8.95;3.65;;;;;;;;;;5017804;28;20428;-81
2023/01/10 08:23:50;;;;;;;9.45;3.85;;;;;;;;;;5040540;28;20085;-82
2023/01/10 08:26:17;;;;;;;7.32;3.70;;;;;;;;;;5031029;28;20070;-81
2023/01/10 08:28:43;;;;;;;7.47;3.80;;;;;;;;;;5022983;28;20084;-81
2023/01/10 08:31:10;;;;;;;7.18;3.25;;;;;;;;;;5028399;28;20037;-80
2023/01/10 08:33:38;;;;;;;8.10;3.45;;;;;;;;;;5042342;28;20068;-81
2023/01/10 08:36:05;;;;;;;8.85;4.10;;;;;;;;;;5020851;28;20048;-79
2023/01/10 08:38:32;;;;;;;9.18;4.20;;;;;;;;;;5035259;28;20084;-81
2023/01/10 08:41:00;;;;;;;8.93;4.40;;;;;;;;;;5038382;28;20045;-80
2023/01/10 08:43:26;;;;;;;10.18;4.25;;;;;;;;;;5044006;28;20049;-80
2023/01/10 08:45:53;;;;;;;10.13;4.10;;;;;;;;;;5040841;28;20034;-81
2023/01/10 08:48:20;;;;;;;8.30;4.10;;;;;;;;;;5024158;28;20081;-81
2023/01/10 08:50:46;;;;;;;9.98;4.00;;;;;;;;;;5025749;28;20615;-80
2023/01/10 08:53:13;;;;;;;7.38;3.67;;;;;;;;;;5019075;28;20559;-84
2023/01/10 08:55:40;;;;;;;8.13;3.88;;;;;;;;;;5031103;28;20061;-78
2023/01/10 08:58:09;;;;;;;8.05;3.25;;;;;;;;;;5022976;28;20068;-83
2023/01/10 09:00:36;;;;;;;9.32;3.40;;;;;;;;;;5017298;28;20046;-80
2023/01/10 09:03:05;;;;;;;7.68;3.65;;;;;;;;;;5025176;28;20041;-80
2023/01/10 09:05:32;;;;;;;8.88;3.40;;;;;;;;;;5027387;28;20045;-80
2023/01/10 09:08:00;;;;;;;5.63;3.28;;;;;;;;;;5032752;28;20045;-80
2023/01/10 09:10:27;;;;;;;9.45;3.35;;;;;;;;;;5019278;28;20412;-81
2023/01/10 09:12:58;;;;;;;6.57;3.00;;;;;;;;;;5017680;28;20080;-81
2023/01/10 09:15:28;;;;;;;;;;;;;;;;;;5017075;28;20049;-80
2023/01/10 09:17:55;;;;;;;5.60;2.00;;;;;;;;;;5014520;28;19928;-80
2023/01/10 09:20:23;;;;;;;4.20;2.30;;;;;;;;;;5026361;28;20538;-80
2023/01/10 09:22:50;;;;;;;5.45;2.25;;;;;;;;;;5040182;28;20045;-80
2023/01/10 09:25:17;;;;;;;5.30;1.70;;;;;;;;;;5028366;28;20073;-80
2023/01/10 09:27:43;;;;;;;4.55;2.10;;;;;;;;;;5017222;28;20472;-81
2023/01/10 09:30:11;;;;;;;4.07;1.75;;;;;;;;;;5014715;28;20056;-80
2023/01/10 09:32:39;;;;;;;7.00;2.20;;;;;;;;;;5016174;28;20163;-81
2023/01/10 09:35:06;;;;;;;5.35;2.50;;;;;;;;;;5030054;28;20419;-81
2023/01/10 09:37:33;;;;;;;7.30;2.92;;;;;;;;;;5035158;28;20091;-81
2023/01/10 09:40:00;;;;;;;8.27;2.88;;;;;;;;;;5034496;28;20070;-81
2023/01/10 09:42:41;;;;;;;6.88;3.17;;;;;;;;;;5038477;28;20563;-81
2023/01/10 09:45:17;;;;;;;7.55;2.97;;;;;;;;;;5039564;28;20052;-84
2023/01/10 09:47:53;;;;;;;7.70;3.17;;;;;;;;;;5017979;28;20075;-83
2023/01/10 09:50:27;;;;;;;12.52;3.47;;;;;;;;;;5024468;28;20083;-80
2023/01/10 09:52:58;;;;;;;7.70;3.35;;;;;;;;;;5024767;28;20518;-81
2023/01/10 09:55:28;;;;;;;6.00;2.80;;;;;;;;;;5015539;28;20128;-80
2023/01/10 09:57:58;;;;;;;9.65;3.38;;;;;;;;;;5024092;28;20041;-80
2023/01/10 10:00:33;;;;;;;9.40;3.97;;;;;;;;;;5034440;28;20506;-81
2023/01/10 10:03:05;;;;;;;11.82;4.10;;;;;;;;;;5031737;28;20069;-80
2023/01/10 10:05:32;;;;;;;7.32;3.50;;;;;;;;;;5022175;28;20061;-81
2023/01/10 10:08:01;;;;;;;7.93;3.47;;;;;;;;;;5015912;28;20060;-81
2023/01/10 10:10:35;;;;;;;8.57;4.10;;;;;;;;;;5014937;28;20050;-80
2023/01/10 10:13:15;;;;;;;8.40;3.50;;;;;;;;;;5021946;28;20069;-81
2023/01/10 10:15:49;;;;;;;8.82;4.10;;;;;;;;;;4994796;28;20046;-81
2023/01/10 10:18:30;;;;;;;7.75;3.28;;;;;;;;;;5005012;28;20052;-80
2023/01/10 10:21:04;;;;;;;11.02;3.40;;;;;;;;;;5018583;28;20050;-81
2023/01/10 10:24:02;;;;;;;11.43;3.60;;;;;;;;;;5016720;28;20073;-81
2023/01/10 10:26:34;;;;;;;8.50;3.35;;;;;;;;;;5003025;28;20058;-81
2023/01/10 10:29:14;;;;;;;7.53;2.78;;;;;;;;;;5011864;28;20121;-81
2023/01/10 10:32:00;;;;;;;8.13;2.90;;;;;;;;;;5014798;28;20459;-81
2023/01/10 10:34:36;;;;;;;6.65;2.33;;;;;;;;;;4994673;28;20042;-81
2023/01/10 10:37:09;;;;;;;6.68;2.58;;;;;;;;;;4999119;28;20505;-81
2023/01/10 10:39:39;;;;;;;10.18;2.17;;;;;;;;;;5017800;28;20432;-81
2023/01/10 10:42:12;;;;;;;7.13;2.20;;;;;;;;;;5023489;28;20843;-81
2023/01/10 10:44:43;;;;;;;8.30;2.30;;;;;;;;;;5017898;28;20053;-81
2023/01/10 10:47:15;;;;;;;9.00;2.47;;;;;;;;;;5014322;28;20056;-80
2023/01/10 10:49:50;;;;;;;5.65;2.30;;;;;;;;;;5015209;28;20089;-81
2023/01/10 10:52:24;;;;;;;7.85;2.22;;;;;;;;;;5020651;28;20046;-79
2023/01/10 10:54:52;;;;;;;5.75;1.80;;;;;;;;;;5023165;28;20041;-80
2023/01/10 10:57:21;;;;;;;8.10;2.10;;;;;;;;;;5012406;28;20490;-80
2023/01/10 10:59:48;;;;;;;9.55;2.30;;;;;;;;;;5002218;28;20085;-81
2023/01/10 11:02:24;;;;;;;6.68;2.45;;;;;;;;;;5021339;28;20042;-81
2023/01/10 11:04:56;;;;;;;5.03;2.00;;;;;;;;;;5030901;28;20066;-79
2023/01/10 11:07:24;;;;;;;6.40;1.92;;;;;;;;;;5029251;28;20066;-79
2023/01/10 11:09:56;;;;;;;8.27;2.22;;;;;;;;;;5030970;28;20118;-79
2023/01/10 11:12:28;;;;;;;7.35;2.28;;;;;;;;;;5041239;28;20068;-79
2023/01/10 11:14:54;;;;;;;7.97;2.17;;;;;;;;;;5023851;28;20128;-79
2023/01/10 11:17:25;;;;;;;8.30;3.33;;;;;;;;;;5038516;28;20073;-79
2023/01/10 11:19:59;;;;;;;7.03;1.75;;;;;;;;;;5036149;28;21733;-80
2023/01/10 11:22:28;;;;;;;7.93;1.52;;;;;;;;;;5018477;28;20046;-80
2023/01/10 11:28:17;;;;;;;5.75;1.80;;;;;;;;;;5021858;28;20045;-83
2023/01/10 11:30:50;;;;;;;6.80;1.45;;;;;;;;;;5025513;28;20053;-79
2023/01/10 11:33:21;;;;;;;6.40;1.70;;;;;;;;;;5019723;28;20045;-80
2023/01/10 11:36:01;;;;;;;7.13;1.80;;;;;;;;;;5030942;28;20038;-80
2023/01/10 11:38:29;;;;;;;7.80;1.85;;;;;;;;;;5022136;28;20066;-80
2023/01/10 11:40:59;;;;;;;5.35;1.67;;;;;;;;;;5014581;28;20058;-80
2023/01/10 11:43:29;;;;;;;7.65;2.40;;;;;;;;;;5024895;28;20715;-79
2023/01/10 11:46:01;;;;;;;8.40;2.05;;;;;;;;;;5015728;28;20481;-80
2023/01/10 11:48:39;;;;;;;8.10;2.38;;;;;;;;;;5032321;28;20045;-80
2023/01/10 11:51:17;;;;;;;7.15;2.42;;;;;;;;;;5031231;28;20065;-80
2023/01/10 11:53:45;;;;;;;8.15;2.10;;;;;;;;;;5038421;28;20103;-80
2023/01/10 11:56:14;;;;;;;6.43;1.75;;;;;;;;;;5030441;28;20050;-79
2023/01/10 11:58:42;;;;;;;7.13;2.30;;;;;;;;;;5016216;28;20157;-80
2023/01/10 12:01:26;;;;;;;6.13;1.75;;;;;;;;;;5016211;28;20110;-80
2023/01/10 12:03:52;;;;;;;6.78;2.05;;;;;;;;;;5015097;28;20416;-81
2023/01/10 12:06:21;;;;;;;6.97;2.03;;;;;;;;;;5014297;28;20054;-81
2023/01/10 12:08:48;;;;;;;8.48;2.10;;;;;;;;;;5026729;28;20460;-80
2023/01/10 12:11:26;;;;;;;5.78;1.80;;;;;;;;;;5025778;28;20037;-80
2023/01/10 12:13:54;;;;;;;7.50;1.98;;;;;;;;;;5019275;28;20037;-80
2023/01/10 12:16:23;;;;;;;8.52;2.20;;;;;;;;;;5020767;28;20064;-81
2023/01/10 12:18:51;;;;;;;7.93;2.42;;;;;;;;;;5023426;28;20053;-81
2023/01/10 12:21:26;;;;;;;7.50;2.42;;;;;;;;;;5013830;28;20042;-81
2023/01/10 12:23:57;;;;;;;7.88;2.40;;;;;;;;;;5014428;28;20141;-79
2023/01/10 12:26:26;;;;;;;7.03;3.20;;;;;;;;;;5015367;28;20046;-80
2023/01/10 12:29:00;;;;;;;6.57;1.70;;;;;;;;;;5028403;28;20153;-80
2023/01/10 12:31:31;;;;;;;6.55;1.92;;;;;;;;;;5008851;28;20042;-81
2023/01/10 12:34:02;;;;;;;;;;;;;;;;;;5022147;28;20046;-81
2023/01/10 12:36:39;;;;;;;9.80;2.40;;;;;;;;;;5017892;28;19921;-81
2023/01/10 12:39:19;;;;;;;5.85;1.92;;;;;;;;;;5002228;28;20068;-81
2023/01/10 12:48:14;;;;;;;6.40;1.73;;;;;;;;;;5005288;28;20100;-80
2023/01/10 12:50:43;;;;;;;13.65;2.15;;;;;;;;;;5010942;28;20058;-79
2023/01/10 12:53:24;;;;;;;4.95;1.70;;;;;;;;;;5031587;22;20049;-81
2023/01/10 12:55:54;;;;;;;4.95;1.92;;;;;;;;;;5030321;28;20091;-79
2023/01/10 12:58:26;;;;;;;5.15;2.10;;;;;;;;;;5031489;28;20087;-80
2023/01/10 13:00:56;;;;;;;10.90;2.08;;;;;;;;;;5034819;28;20048;-79
2023/01/10 13:03:27;;;;;;;;;;;;;;;;;;5033992;28;20049;-77
2023/01/10 13:05:56;;;;;;;11.00;2.05;;;;;;;;;;5032418;28;19925;-83
2023/01/10 13:08:28;;;;;;;6.57;2.00;;;;;;;;;;5037596;28;20081;-79
2023/01/10 13:10:57;;;;;;;8.30;1.90;;;;;;;;;;5041640;28;20081;-77
2023/01/10 13:13:31;;;;;;;10.32;2.58;;;;;;;;;;5039292;28;20048;-77
2023/01/10 13:16:12;;;;;;;10.15;2.38;;;;;;;;;;5041832;28;20049;-77
2023/01/10 13:18:58;;;;;;;6.15;1.90;;;;;;;;;;5040003;28;20079;-78
2023/01/10 13:21:24;;;;;;;6.45;1.90;;;;;;;;;;5040452;28;20065;-77
2023/01/10 13:23:55;;;;;;;5.72;1.92;;;;;;;;;;5041919;28;20060;-81
2023/01/10 13:26:21;;;;;;;4.35;1.73;;;;;;;;;;5039972;28;20447;-85
2023/01/10 13:28:55;;;;;;;5.07;1.90;;;;;;;;;;5035970;28;20076;-77
2023/01/10 13:31:26;;;;;;;7.40;1.73;;;;;;;;;;5035653;28;20083;-77
2023/01/10 13:33:56;;;;;;;9.00;2.05;;;;;;;;;;5023883;28;20053;-78
2023/01/10 13:36:25;;;;;;;6.38;1.73;;;;;;;;;;5034997;28;20077;-77
2023/01/10 13:38:56;;;;;;;10.40;2.05;;;;;;;;;;5034088;28;20128;-78
2023/01/10 13:44:11;;;;;;;6.95;1.98;;;;;;;;;;5024853;28;20051;-79
2023/01/10 13:46:43;;;;;;;7.32;2.00;;;;;;;;;;5034376;28;20453;-77
2023/01/10 13:49:26;;;;;;;5.93;2.05;;;;;;;;;;5033905;28;20103;-77
2023/01/10 13:52:38;;;;;;;11.73;2.10;;;;;;;;;;5035957;28;20050;-77
2023/01/10 13:55:27;;;;;;;5.68;1.80;;;;;;;;;;5029645;28;20053;-76
2023/01/10 13:57:56;;;;;;;8.43;2.35;;;;;;;;;;5019598;28;20161;-77
2023/01/10 14:03:52;;;;;;;8.05;2.30;;;;;;;;;;5028006;28;20064;-77
2023/01/10 14:06:36;;;;;;;5.32;1.80;;;;;;;;;;5018528;28;20091;-78
2023/01/10 14:09:06;;;;;;;4.47;1.63;;;;;;;;;;5020156;28;20545;-78
2023/01/10 14:11:50;;;;;;;5.33;2.40;;;;;;;;;;5034135;28;20523;-78
2023/01/10 14:14:22;;;;;;;8.35;2.33;;;;;;;;;;5032668;28;20575;-78
2023/01/10 14:16:51;;;;;;;5.15;1.88;;;;;;;;;;5032999;28;20107;-77
2023/01/10 14:19:27;;;;;;;8.65;1.67;;;;;;;;;;5032980;28;20119;-77
2023/01/10 14:21:56;;;;;;;7.70;2.33;;;;;;;;;;5033407;28;20049;-78
2023/01/10 14:24:25;;;;;;;6.45;2.67;;;;;;;;;;5032554;28;20047;-78
2023/01/10 14:26:54;;;;;;;6.65;2.13;;;;;;;;;;5033948;28;20084;-77
2023/01/10 14:29:21;;;;;;;4.43;1.52;;;;;;;;;;5032240;28;20046;-78
2023/01/10 14:31:51;;;;;;;5.68;2.13;;;;;;;;;;5032616;28;20137;-77
2023/01/10 14:34:21;;;;;;;5.28;1.70;;;;;;;;;;5032641;28;20037;-77
2023/01/10 14:36:53;;;;;;;6.47;2.33;;;;;;;;;;5032939;28;20048;-78
2023/01/10 14:39:21;;;;;;;6.57;2.42;;;;;;;;;;5032298;28;20073;-78
2023/01/10 14:41:52;;;;;;;5.50;1.75;;;;;;;;;;5032423;28;20049;-77
2023/01/10 14:44:22;;;;;;;;;;;;;;;;;;5043677;28;20042;-77
2023/01/10 14:46:51;;;;;;;5.93;2.10;;;;;;;;;;5035945;28;20007;-78
2023/01/10 14:49:24;;;;;;;6.60;1.75;;;;;;;;;;5038489;28;20492;-77
2023/01/10 14:51:51;;;;;;;7.50;2.45;;;;;;;;;;5036501;28;20064;-77
2023/01/10 14:54:20;;;;;;;7.63;2.78;;;;;;;;;;5032187;28;20123;-78
2023/01/10 14:56:49;;;;;;;9.68;2.20;;;;;;;;;;5032068;28;20607;-78
2023/01/10 14:59:24;;;;;;;5.25;2.55;;;;;;;;;;5024116;28;20456;-77
2023/01/10 15:01:53;;;;;;;5.38;1.95;;;;;;;;;;5032508;28;20046;-80
2023/01/10 15:04:23;;;;;;;7.85;2.08;;;;;;;;;;5029616;28;20492;-78
2023/01/10 15:06:55;;;;;;;7.43;2.30;;;;;;;;;;5032539;28;20189;-77
2023/01/10 15:09:22;;;;;;;9.55;2.80;;;;;;;;;;5031892;28;20107;-78
2023/01/10 15:11:50;;;;;;;6.53;2.33;;;;;;;;;;5033843;28;20087;-78
2023/01/10 15:14:19;;;;;;;8.57;2.10;;;;;;;;;;5030880;28;20043;-77
2023/01/10 15:16:48;;;;;;;4.13;1.88;;;;;;;;;;5033619;28;20053;-77
2023/01/10 15:19:18;;;;;;;6.20;1.90;;;;;;;;;;5035455;28;20057;-77
2023/01/10 15:21:46;;;;;;;5.50;1.67;;;;;;;;;;5035031;28;20113;-77
2023/01/10 15:24:33;;;;;;;5.68;1.88;;;;;;;;;;5035263;28;20046;-75
2023/01/10 15:27:02;;;;;;;7.80;2.45;;;;;;;;;;5035944;28;20126;-78